• Join FlightAware (Why Join?)
  • Login
  • US Flag 
05:06AM EDT


 

Airport Tracker/Info


-or-


 

Live Flight TrackerFlight Track Log ✈ UPS1122 ✈ 19-Jun-2013 ✈ KPHL - KBDL

Flight Track Log - Related Links

Times and Time Zones

All times are in EDT time to prevent confusion due to time zone crossing. See the UPS1122 flight status page for this flight to view local times or setup timezone preferences in your user account.

Time Position Orientation Groundspeed Altitude Reporting Facility
EDT Latitude Longitude Course Direction KTS MPH feet Rate Location/Type
03:53AM 39.8698 -75.2329 74° East 179 206 1,500  Level FlightAware ADS-B
03:53AM 39.8714 -75.2251 75° East 184 212 1,800 1,980 Climbing FlightAware ADS-B
03:53AM 39.8729 -75.2174 76° East 194 223 2,000 2,220 Climbing FlightAware ADS-B
03:54AM 39.8747 -75.2065 78° East 204 235 2,400 2,520 Climbing FlightAware ADS-B
03:54AM 39.8756 -75.2007 79° East 206 237 2,600 2,640 Climbing FlightAware ADS-B
03:54AM 39.8762 -75.1957 81° East 207 238 2,800 3,420 Climbing FlightAware ADS-B
03:54AM 39.8763 -75.1914 88° East 210 242 3,000 3,420 Climbing FlightAware ADS-B
03:54AM 39.8760 -75.1865 95° East 213 245 3,200 3,300 Climbing FlightAware ADS-B
03:54AM 39.8749 -75.1797 102° East 217 250 3,500 2,400 Climbing FlightAware ADS-B
03:54AM 39.8714 -75.1595 103° East 232 267 4,000 1,920 Climbing FlightAware ADS-B
03:54AM 39.8678 -75.1373 102° East 256 295 4,500 2,280 Climbing FlightAware ADS-B
03:55AM 39.8637 -75.1131 102° East 269 310 5,200 3,000 Climbing FlightAware ADS-B
03:55AM 39.8604 -75.0929 102° East 272 313 5,900 3,180 Climbing FlightAware ADS-B
03:55AM 39.8561 -75.0673 102° East 281 323 6,700 3,000 Climbing FlightAware ADS-B
03:55AM 39.8517 -75.0427 103° East 286 329 7,400 3,000 Climbing FlightAware ADS-B
03:56AM 39.8473 -75.0168 102° East 289 333 8,200 3,180 Climbing FlightAware ADS-B
03:56AM 39.8425 -74.9904 103° East 296 341 9,000 3,180 Climbing FlightAware ADS-B
03:56AM 39.8378 -74.9635 103° East 301 346 9,800 2,280 Climbing FlightAware ADS-B
03:57AM 39.8298 -74.9141 102° East 330 380 10,600 1,740 Climbing FlightAware ADS-B
03:57AM 39.8194 -74.8521 102° East 357 411 11,500 1,260 Climbing FlightAware ADS-B
03:58AM 39.8072 -74.7855 103° East 398 458 11,900 840 Climbing FlightAware ADS-B
03:58AM 39.8057 -74.7750 101° East 400 460 12,000 1,680 Climbing FlightAware ADS-B
03:58AM 39.8049 -74.7520 93° East 404 465 12,300 2,220 Climbing FlightAware ADS-B
03:58AM 39.8067 -74.7355 82° East 403 464 12,600 2,700 Climbing FlightAware ADS-B
03:58AM 39.8087 -74.7245 77° East 402 463 12,800 3,300 Climbing FlightAware ADS-B
03:58AM 39.8180 -74.6914 70° East 396 456 13,700 3,480 Climbing FlightAware ADS-B
03:58AM 39.8260 -74.6714 62° Northeast 394 453 14,200 3,360 Climbing FlightAware ADS-B
03:59AM 39.8326 -74.6578 58° Northeast 394 453 14,600 3,180 Climbing FlightAware ADS-B
03:59AM 39.8422 -74.6409 54° Northeast 395 455 15,000 2,280 Climbing FlightAware ADS-B
03:59AM 39.8534 -74.6245 48° Northeast 397 457 15,300 1,740 Climbing FlightAware ADS-B
03:59AM 39.8631 -74.6125 44° Northeast 401 461 15,500 1,500 Climbing FlightAware ADS-B
03:59AM 39.9000 -74.5763 37° Northeast 419 482 16,100 1,380 Climbing FlightAware ADS-B
04:00AM 39.9504 -74.5305 35° Northeast 438 504 16,800 1,860 Climbing FlightAware ADS-B
04:00AM 39.9998 -74.4843 36° Northeast 441 507 18,000 1,920 Climbing FlightAware ADS-B
04:01AM 40.0508 -74.4358 36° Northeast 454 522 18,800 1,740 Climbing FlightAware ADS-B
04:01AM 40.1024 -74.3871 36° Northeast 458 527 19,800 1,980 Climbing FlightAware ADS-B
04:02AM 40.1542 -74.3372 36° Northeast 461 531 20,800 1,140 Climbing FlightAware ADS-B
04:02AM 40.2064 -74.2861 37° Northeast 455 524 21,000 180 Climbing FlightAware ADS-B
04:03AM 40.2611 -74.2424 31° Northeast 454 522 21,000  Level FlightAware ADS-B
04:03AM 40.3149 -74.1985 32° Northeast 459 528 21,000  Level FlightAware ADS-B
04:04AM 40.3685 -74.1517 34° Northeast 459 528 21,000  Level FlightAware ADS-B
04:04AM 40.4232 -74.1025 34° Northeast 460 529 21,000  Level FlightAware ADS-B
04:05AM 40.4743 -74.0563 35° Northeast 459 528 21,000  Level FlightAware ADS-B
04:05AM 40.5270 -74.0081 35° Northeast 460 529 21,000  Level FlightAware ADS-B
04:06AM 40.5800 -73.9594 35° Northeast 460 529 21,000  Level FlightAware ADS-B
04:07AM 40.6337 -73.9098 35° Northeast 460 529 21,000  Level FlightAware ADS-B
04:07AM 40.6875 -73.8602 35° Northeast 462 532 21,000  Level FlightAware ADS-B
04:08AM 40.7405 -73.8113 35° Northeast 463 533 21,000  Level FlightAware ADS-B
04:08AM 40.7940 -73.7618 35° Northeast 465 535 21,000  Level FlightAware ADS-B
04:09AM 40.8474 -73.7124 35° Northeast 467 537 21,000  Level FlightAware ADS-B
04:09AM 40.9005 -73.6631 35° Northeast 468 539 21,000  Level FlightAware ADS-B
04:10AM 40.9554 -73.6118 35° Northeast 469 540 21,000  Level FlightAware ADS-B
04:10AM 41.0087 -73.5621 35° Northeast 470 541 21,000 -240 Level FlightAware ADS-B
04:11AM 41.0638 -73.5104 35° Northeast 469 540 20,800 -1,140 Descending FlightAware ADS-B
04:11AM 41.1170 -73.4605 35° Northeast 462 532 19,900 -2,280 Descending FlightAware ADS-B
04:12AM 41.1694 -73.4116 35° Northeast 454 522 18,500 -2,700 Descending FlightAware ADS-B
04:12AM 41.2206 -73.3636 35° Northeast 442 509 17,200 -2,460 Descending FlightAware ADS-B
04:13AM 41.3220 -73.2680 35° Northeast 415 478 14,800 -1,680 Descending FlightAware
04:14AM 41.3750 -73.2180 35° Northeast 413 475 14,400 -360 Descending FlightAware
04:14AM 41.4230 -73.1740 34° Northeast 413 475 14,400 -2,940 Level FlightAware
04:15AM 41.4833 -73.1328 34° Northeast 393 452 10,700 -3,240 Descending Boston Center
04:16AM 41.5483 -73.0781 32° Northeast 351 404 10,100 -1,380 Descending Boston Center
04:17AM 41.6194 -73.0233 30° Northeast 289 333 8,400 -1,920 Descending Boston Center
04:18AM 41.6844 -72.9683 32° Northeast 277 319 6,300 -2,040 Descending Boston Center
04:19AM 41.7450 -72.9158 33° Northeast 255 293 4,400 -1,680 Descending Boston Center
04:20AM 41.7994 -72.8744 30° Northeast 233 268 3,000 -840 Descending Boston Center
04:21AM 41.8328 -72.8303 45° Northeast 178 205 2,900 -480 Descending Boston Center
04:22AM 41.8600 -72.7914 47° Northeast 151 174 2,100 -720 Descending Boston Center
04:23AM 41.8853 -72.7636 39° Northeast 120 138 1,500 -600 Descending Boston Center
04:24AM 41.9039 -72.7358 48° Northeast 107 123 900 -600 Descending Boston Center
04:25AM 41.9292 -72.7053 42° Northeast 112 129 300 -600 Descending Boston Center
04:29AM 41.9333 -72.6833 29° Northeast  Level FlightAware Approximate
04:36AM 41.9392 -72.6834 29° Northeast  Level Estimated
04:37AM 41.9333 -72.6833 29° Northeast  Level FlightAware Approximate
04:38AM 41.9392 -72.6834 29° Northeast  Level Estimated